createdAt,value
2023-05-11T00:00:41.811Z,99933.91
2023-05-11T00:03:09.715Z,99929.06
2023-05-11T00:05:37.482Z,99924.22
2023-05-11T00:08:05.012Z,99930.75
2023-05-11T00:10:32.511Z,99928.56
2023-05-11T00:13:00.028Z,99924.47
2023-05-11T00:15:28.873Z,99930.78
2023-05-11T00:17:56.360Z,99928.19
2023-05-11T00:20:23.907Z,99924.69
2023-05-11T00:22:51.420Z,99930.88
2023-05-11T00:25:19.002Z,99926.50
2023-05-11T00:27:46.868Z,99927.25
2023-05-11T00:30:16.010Z,99920.03
2023-05-11T00:32:45.301Z,99921.84
2023-05-11T00:35:13.437Z,99926.88
2023-05-11T00:37:41.535Z,99917.38
2023-05-11T00:40:09.660Z,99919.88
2023-05-11T00:42:37.177Z,99923.13
2023-05-11T00:45:05.566Z,99923.06
2023-05-11T00:47:33.136Z,99918.75
2023-05-11T00:50:02.155Z,99917.97
2023-05-11T00:52:29.795Z,99921.41
2023-05-11T00:54:57.299Z,99926.50
2023-05-11T00:57:24.940Z,99928.44
2023-05-11T00:59:52.445Z,99917.38
2023-05-11T01:02:19.954Z,99921.00
2023-05-11T01:04:47.508Z,99917.19
2023-05-11T01:07:20.702Z,99924.09
2023-05-11T01:09:57.068Z,99928.91
2023-05-11T01:12:30.743Z,99925.28
2023-05-11T01:15:04.275Z,99915.72
2023-05-11T01:17:39.350Z,99920.22
2023-05-11T01:20:08.798Z,99911.78
2023-05-11T01:22:50.245Z,99921.34
2023-05-11T01:25:29.076Z,99921.59
2023-05-11T01:28:14.154Z,99922.47
2023-05-11T01:30:49.703Z,99921.25
2023-05-11T01:33:17.492Z,99921.44
2023-05-11T01:35:51.753Z,99927.59
2023-05-11T01:38:20.869Z,99925.91
2023-05-11T01:40:53.492Z,99929.34
2023-05-11T01:43:21.832Z,99929.38
2023-05-11T01:45:51.749Z,99929.38
2023-05-11T01:48:23.927Z,99926.75
2023-05-11T01:50:52.439Z,99929.84
2023-05-11T01:53:20.650Z,99932.81
2023-05-11T01:55:48.934Z,99934.97
2023-05-11T01:58:18.559Z,99935.81
2023-05-11T02:00:46.497Z,99938.28
2023-05-11T02:03:16.581Z,99935.28
2023-05-11T02:05:45.212Z,99938.09
2023-05-11T02:08:12.948Z,99940.72
2023-05-11T02:10:41.770Z,99939.53
2023-05-11T02:13:10.815Z,99946.47
2023-05-11T02:15:39.323Z,99951.72
2023-05-11T02:18:08.317Z,99948.13
2023-05-11T02:20:37.425Z,99939.06
2023-05-11T02:23:05.264Z,99943.38
2023-05-11T02:25:33.192Z,99942.16
2023-05-11T02:28:01.625Z,99943.66
2023-05-11T02:30:30.359Z,99947.91
2023-05-11T02:32:58.937Z,99944.31
2023-05-11T02:35:30.381Z,99940.91
2023-05-11T02:38:01.483Z,99938.00
2023-05-11T02:40:31.387Z,99945.03
2023-05-11T02:43:01.781Z,99941.00
2023-05-11T02:45:32.340Z,99939.53
2023-05-11T02:48:00.483Z,99940.13
2023-05-11T02:50:30.201Z,99938.97
2023-05-11T02:53:00.849Z,99938.78
2023-05-11T02:55:28.736Z,99940.03
2023-05-11T02:57:56.323Z,99941.44
2023-05-11T03:00:24.040Z,99945.13
2023-05-11T03:02:51.690Z,99944.25
2023-05-11T03:05:19.414Z,99948.84
2023-05-11T03:07:47.102Z,99943.75
2023-05-11T03:10:16.006Z,99948.56
2023-05-11T03:12:43.717Z,99943.69
2023-05-11T03:15:12.658Z,99945.50
2023-05-11T03:17:40.997Z,99943.13
2023-05-11T03:20:09.803Z,99933.56
2023-05-11T03:22:37.981Z,99938.88
2023-05-11T03:25:07.238Z,99939.34
2023-05-11T03:27:36.689Z,99945.94
2023-05-11T03:30:05.524Z,99943.69
2023-05-11T03:32:33.025Z,99942.44
2023-05-11T03:35:00.567Z,99938.50
2023-05-11T03:37:28.412Z,99943.66
2023-05-11T03:39:59.077Z,99942.69
2023-05-11T03:42:26.962Z,99945.00
2023-05-11T03:44:59.671Z,99936.03
2023-05-11T03:47:27.565Z,99940.63
2023-05-11T03:49:55.628Z,99929.25
2023-05-11T03:52:24.576Z,99940.47
2023-05-11T03:54:52.067Z,99939.06
2023-05-11T03:57:19.564Z,99933.50
2023-05-11T03:59:47.323Z,99936.06
2023-05-11T04:02:16.379Z,99934.28
2023-05-11T04:04:43.992Z,99935.81
2023-05-11T04:07:11.535Z,99935.00
2023-05-11T04:09:39.040Z,99937.22
2023-05-11T04:12:07.149Z,99937.81
2023-05-11T04:14:34.687Z,99930.78
2023-05-11T04:17:02.372Z,99930.78
2023-05-11T04:19:31.224Z,99936.28
2023-05-11T04:21:58.756Z,99932.13
2023-05-11T04:24:26.287Z,99938.38
2023-05-11T04:26:56.916Z,99935.97
2023-05-11T04:29:24.454Z,99942.81
2023-05-11T04:31:52.266Z,99945.97
2023-05-11T04:34:19.884Z,99943.34
2023-05-11T04:36:49.692Z,99941.91
2023-05-11T04:39:17.830Z,99945.25
2023-05-11T04:41:45.871Z,99947.00
2023-05-11T04:44:13.345Z,99948.66
2023-05-11T04:46:40.873Z,99952.38
2023-05-11T04:49:08.443Z,99946.84
2023-05-11T04:51:35.936Z,99944.31
2023-05-11T04:54:04.776Z,99948.94
2023-05-11T04:56:32.285Z,99942.81
2023-05-11T04:58:59.808Z,99948.38
2023-05-11T05:01:27.293Z,99950.53
2023-05-11T05:03:54.968Z,99953.03
2023-05-11T05:06:22.472Z,99950.94
2023-05-11T05:08:49.964Z,99955.63
2023-05-11T05:11:18.820Z,99958.59
2023-05-11T05:13:46.297Z,99954.00
2023-05-11T05:16:13.814Z,99957.81
2023-05-11T05:18:41.430Z,99962.97
2023-05-11T05:21:08.915Z,99962.00
2023-05-11T05:23:36.416Z,99966.06
2023-05-11T05:26:03.925Z,99962.16
2023-05-11T05:28:32.776Z,99964.69
2023-05-11T05:31:00.466Z,99962.00
2023-05-11T05:33:27.978Z,99961.78
2023-05-11T05:35:55.490Z,99960.88
2023-05-11T05:38:22.992Z,99972.75
2023-05-11T05:40:50.783Z,99963.41
2023-05-11T05:43:18.474Z,99966.00
2023-05-11T05:45:47.293Z,99967.75
2023-05-11T05:48:14.780Z,99968.34
2023-05-11T05:50:42.399Z,99967.94
2023-05-11T05:53:09.914Z,99978.75
2023-05-11T05:55:37.449Z,99978.00
2023-05-11T05:58:04.907Z,99978.34
2023-05-11T06:00:32.410Z,99984.28
2023-05-11T06:03:01.281Z,99973.34
2023-05-11T06:05:28.822Z,99979.47
2023-05-11T06:08:09.061Z,99982.72
2023-05-11T06:10:37.148Z,99985.38
2023-05-11T06:13:04.756Z,99982.63
2023-05-11T06:15:32.435Z,99988.81
2023-05-11T06:18:01.327Z,99990.13
2023-05-11T06:20:28.946Z,99985.47
2023-05-11T06:22:56.450Z,99984.44
2023-05-11T06:25:23.950Z,99985.78
2023-05-11T06:27:51.542Z,99976.19
2023-05-11T06:30:19.452Z,99980.59
2023-05-11T06:32:47.361Z,99977.00
2023-05-11T06:35:16.461Z,99976.00
2023-05-11T06:37:44.029Z,99969.69
2023-05-11T06:40:11.708Z,99981.03
2023-05-11T06:42:39.236Z,99981.16
2023-05-11T06:45:07.965Z,99975.34
2023-05-11T06:47:35.554Z,99974.03
2023-05-11T06:50:03.406Z,99978.41
2023-05-11T06:52:32.293Z,99981.72
2023-05-11T06:54:59.796Z,99978.44
2023-05-11T06:57:27.355Z,99979.69
2023-05-11T06:59:54.819Z,99976.66
2023-05-11T07:02:22.310Z,99981.84
2023-05-11T07:04:49.846Z,99979.69
2023-05-11T07:07:17.389Z,99981.97
2023-05-11T07:09:46.194Z,99984.97
2023-05-11T07:12:13.699Z,99976.94
2023-05-11T07:14:41.274Z,99979.19
2023-05-11T07:17:08.830Z,99974.22
2023-05-11T07:19:36.408Z,99984.03
2023-05-11T07:22:05.678Z,99995.97
2023-05-11T07:24:33.199Z,99983.28
2023-05-11T07:27:02.074Z,99988.69
2023-05-11T07:29:29.613Z,99986.66
2023-05-11T07:31:57.229Z,99992.34
2023-05-11T07:34:25.306Z,99988.16
2023-05-11T07:36:52.815Z,99987.06
2023-05-11T07:39:20.322Z,99999.78
2023-05-11T07:41:48.034Z,99993.53
2023-05-11T07:44:16.853Z,99990.34
2023-05-11T07:46:44.550Z,99989.31
2023-05-11T07:49:18.641Z,99998.97
2023-05-11T07:51:48.205Z,99994.78
2023-05-11T07:54:15.704Z,100006.75
2023-05-11T07:56:43.385Z,100002.16
2023-05-11T07:59:10.897Z,99996.34
2023-05-11T08:01:39.776Z,100000.88
2023-05-11T08:04:07.620Z,100001.47
2023-05-11T08:06:35.429Z,99993.53
2023-05-11T08:09:02.951Z,99993.94
2023-05-11T08:11:30.540Z,100000.88
2023-05-11T08:13:58.470Z,99999.16
2023-05-11T08:16:26.124Z,99991.19
2023-05-11T08:18:54.970Z,99993.25
2023-05-11T08:21:23.613Z,99993.91
2023-05-11T08:23:51.138Z,99994.09
2023-05-11T08:26:18.675Z,99999.00
2023-05-11T08:28:46.159Z,100000.75
2023-05-11T08:31:14.307Z,100000.53
2023-05-11T08:33:42.113Z,100000.13
2023-05-11T08:36:13.216Z,99998.97
2023-05-11T08:38:40.719Z,99994.78
2023-05-11T08:41:08.614Z,100000.31
2023-05-11T08:43:36.553Z,100003.28
2023-05-11T08:46:07.361Z,99997.22
2023-05-11T08:48:35.454Z,99993.69
2023-05-11T08:51:03.877Z,99997.47
2023-05-11T08:53:32.708Z,100001.75
2023-05-11T08:56:02.388Z,100003.56
2023-05-11T08:58:30.317Z,99994.81
2023-05-11T09:00:58.740Z,99998.72
2023-05-11T09:03:26.343Z,99993.81
2023-05-11T09:05:54.158Z,99987.72
2023-05-11T09:08:23.235Z,99990.91
2023-05-11T09:10:52.340Z,99990.75
2023-05-11T09:13:19.864Z,99987.34
2023-05-11T09:15:47.360Z,99978.63
2023-05-11T09:18:14.853Z,99986.66
2023-05-11T09:20:44.791Z,99984.09
2023-05-11T09:23:12.274Z,99975.13
2023-05-11T09:25:39.860Z,99980.91
2023-05-11T09:28:15.799Z,99970.81
2023-05-11T09:30:44.106Z,99974.88
2023-05-11T09:33:11.768Z,99971.97
2023-05-11T09:35:39.310Z,99985.34
2023-05-11T09:38:08.271Z,99977.19
2023-05-11T09:40:37.167Z,99990.78
2023-05-11T09:43:05.426Z,99985.19
2023-05-11T09:45:41.591Z,99981.00
2023-05-11T09:48:25.674Z,99971.28
2023-05-11T09:51:03.728Z,99968.97
2023-05-11T09:53:35.816Z,99973.91
2023-05-11T09:56:04.233Z,99961.34
2023-05-11T09:58:46.430Z,99962.19
2023-05-11T10:01:15.799Z,99969.03
2023-05-11T10:03:51.387Z,99962.94
2023-05-11T10:06:20.436Z,99972.94
2023-05-11T10:08:48.905Z,99969.31
2023-05-11T10:11:16.484Z,99962.31
2023-05-11T10:13:44.981Z,99959.59
2023-05-11T10:16:15.245Z,99956.94
2023-05-11T10:18:43.637Z,99951.75
2023-05-11T10:21:12.063Z,99949.69
2023-05-11T10:23:39.732Z,99943.63
2023-05-11T10:26:07.416Z,99936.72
2023-05-11T10:28:34.986Z,99944.63
2023-05-11T10:31:04.736Z,99941.09
2023-05-11T10:33:33.674Z,99944.53
2023-05-11T10:36:01.613Z,99947.50
2023-05-11T10:38:29.127Z,99936.38
2023-05-11T10:40:59.190Z,99933.91
2023-05-11T10:43:55.958Z,99945.03
2023-05-11T10:46:36.217Z,99933.25
2023-05-11T10:49:15.578Z,99932.94
2023-05-11T10:51:55.881Z,99919.25
2023-05-11T10:54:33.725Z,99930.63
2023-05-11T10:57:25.948Z,99930.78
2023-05-11T11:00:35.880Z,99931.84
2023-05-11T11:03:11.088Z,99927.03
2023-05-11T11:05:40.094Z,99930.13
2023-05-11T11:08:09.228Z,99935.34
2023-05-11T11:10:38.464Z,99935.16
2023-05-11T11:13:07.975Z,99934.41
2023-05-11T11:16:08.827Z,99926.44
2023-05-11T11:18:36.339Z,99931.59
2023-05-11T11:21:05.444Z,99938.13
2023-05-11T11:23:43.541Z,99937.53
2023-05-11T11:26:12.399Z,99931.63
2023-05-11T11:29:13.982Z,99933.22
2023-05-11T11:31:42.146Z,99928.16
2023-05-11T11:34:36.353Z,99927.53
2023-05-11T11:37:08.548Z,99931.38
2023-05-11T11:40:14.064Z,99939.34
2023-05-11T11:42:44.213Z,99940.47
2023-05-11T11:45:32.326Z,99943.69
2023-05-11T11:48:13.158Z,99942.97
2023-05-11T11:50:42.276Z,99939.41
2023-05-11T11:53:35.690Z,99941.06
2023-05-11T11:56:05.727Z,99940.47
2023-05-11T11:58:58.051Z,99937.38
2023-05-11T12:01:28.161Z,99945.03
2023-05-11T12:04:12.764Z,99946.38
2023-05-11T12:06:43.102Z,99945.47
2023-05-11T12:09:10.622Z,99936.56
2023-05-11T12:11:40.648Z,99937.47
2023-05-11T12:14:10.228Z,99934.28
2023-05-11T12:16:37.772Z,99934.41
2023-05-11T12:19:05.578Z,99941.09
2023-05-11T12:21:33.725Z,99936.31
2023-05-11T12:24:02.777Z,99939.06
2023-05-11T12:26:31.791Z,99941.69
2023-05-11T12:29:09.500Z,99945.44
2023-05-11T12:31:37.277Z,99945.00
2023-05-11T12:34:04.837Z,99942.22
2023-05-11T12:36:33.072Z,99942.81
2023-05-11T12:39:01.037Z,99948.91
2023-05-11T12:41:28.559Z,99939.78
2023-05-11T12:43:56.221Z,99936.19
2023-05-11T12:46:25.085Z,99934.66
2023-05-11T12:48:52.755Z,99936.75
2023-05-11T12:51:48.596Z,99939.41
2023-05-11T12:54:29.946Z,99941.94
2023-05-11T12:56:57.876Z,99944.13
2023-05-11T12:59:34.153Z,99941.41
2023-05-11T13:02:14.810Z,99941.13
2023-05-11T13:04:43.257Z,99932.09
2023-05-11T13:07:12.533Z,99933.84
2023-05-11T13:09:41.224Z,99934.84
2023-05-11T13:12:10.874Z,99935.31
2023-05-11T13:14:38.937Z,99923.16
2023-05-11T13:17:07.075Z,99925.91
2023-05-11T13:19:37.770Z,99925.78
2023-05-11T13:22:06.514Z,99913.97
2023-05-11T13:24:34.900Z,99919.31
2023-05-11T13:27:02.830Z,99920.47
2023-05-11T13:29:30.711Z,99924.31
2023-05-11T13:31:58.496Z,99918.97
2023-05-11T13:34:26.748Z,99911.28
2023-05-11T13:36:56.059Z,99920.94
2023-05-11T13:39:23.869Z,99922.06
2023-05-11T13:41:52.637Z,99926.75
2023-05-11T13:44:21.484Z,99927.84
2023-05-11T13:46:49.349Z,99921.88
2023-05-11T13:49:17.193Z,99913.75
2023-05-11T13:51:44.984Z,99918.13
2023-05-11T13:54:14.321Z,99910.81
2023-05-11T13:56:42.133Z,99907.16
2023-05-11T13:59:10.219Z,99896.28
2023-05-11T14:01:38.620Z,99903.88
2023-05-11T14:04:06.695Z,99898.03
2023-05-11T14:06:36.277Z,99890.78
2023-05-11T14:09:04.402Z,99888.84
2023-05-11T14:11:33.607Z,99893.75
2023-05-11T14:14:01.916Z,99898.69
2023-05-11T14:16:31.351Z,99883.84
2023-05-11T14:18:59.663Z,99891.28
2023-05-11T14:21:27.635Z,99884.63
2023-05-11T14:24:10.019Z,99875.06
2023-05-11T14:26:40.494Z,99877.44
2023-05-11T14:29:08.390Z,99892.19
2023-05-11T14:31:37.249Z,99891.09
2023-05-11T14:34:05.559Z,99879.28
2023-05-11T14:36:33.482Z,99884.38
2023-05-11T14:39:01.539Z,99878.94
2023-05-11T14:41:29.562Z,99879.22
2023-05-11T14:43:58.778Z,99875.22
2023-05-11T14:46:27.105Z,99878.06
2023-05-11T14:48:55.061Z,99868.34
2023-05-11T14:51:22.827Z,99867.03
2023-05-11T14:53:50.609Z,99876.41
2023-05-11T14:56:18.465Z,99872.03
2023-05-11T14:58:47.080Z,99869.72
2023-05-11T15:01:16.641Z,99874.31
2023-05-11T15:03:44.743Z,99883.72
2023-05-11T15:06:15.556Z,99884.22
2023-05-11T15:08:46.725Z,99879.16
2023-05-11T15:11:14.900Z,99885.34
2023-05-11T15:13:42.411Z,99885.28
2023-05-11T15:16:10.110Z,99886.59
2023-05-11T15:18:40.032Z,99896.53
2023-05-11T15:21:08.497Z,99885.81
2023-05-11T15:23:36.153Z,99889.94
2023-05-11T15:26:03.711Z,99894.94
2023-05-11T15:28:31.276Z,99898.19
2023-05-11T15:30:58.785Z,99899.03
2023-05-11T15:33:26.387Z,99907.38
2023-05-11T15:35:55.194Z,99916.81
2023-05-11T15:38:22.706Z,99912.91
2023-05-11T15:40:50.608Z,99919.03
2023-05-11T15:43:18.627Z,99923.84
2023-05-11T15:45:46.299Z,99917.03
2023-05-11T15:48:14.866Z,99937.13
2023-05-11T15:50:42.351Z,99932.47
2023-05-11T15:53:11.158Z,99923.78
2023-05-11T15:55:39.027Z,99899.13
2023-05-11T15:58:07.880Z,99894.50
2023-05-11T16:00:35.363Z,99890.91
2023-05-11T16:03:02.963Z,99894.75
2023-05-11T16:05:30.520Z,99908.88
2023-05-11T16:07:58.007Z,99910.19
2023-05-11T16:10:26.863Z,99923.00
2023-05-11T16:12:55.556Z,99931.28
2023-05-11T16:15:24.965Z,99931.09
2023-05-11T16:17:52.584Z,99927.34
2023-05-11T16:20:20.310Z,99915.47
2023-05-11T16:22:48.401Z,99923.22
2023-05-11T16:25:16.114Z,99932.63
2023-05-11T16:27:45.361Z,99927.66
2023-05-11T16:30:23.298Z,99926.25
2023-05-11T16:32:53.874Z,99927.13
2023-05-11T16:35:21.705Z,99920.50
2023-05-11T16:37:49.243Z,99914.25
2023-05-11T16:40:18.855Z,99906.69
2023-05-11T16:42:48.869Z,99907.50
2023-05-11T16:45:16.600Z,99916.03
2023-05-11T16:47:45.173Z,99918.66
2023-05-11T16:50:14.494Z,99921.44
2023-05-11T16:52:42.664Z,99915.78
2023-05-11T16:55:10.953Z,99916.19
2023-05-11T16:57:40.206Z,99924.88
2023-05-11T17:00:13.462Z,99929.78
2023-05-11T17:02:41.751Z,99938.13
2023-05-11T17:05:12.432Z,99931.06
2023-05-11T17:07:40.154Z,99929.03
2023-05-11T17:10:08.674Z,99930.66
2023-05-11T17:12:36.298Z,99930.97
2023-05-11T17:15:04.023Z,99935.88
2023-05-11T17:17:34.101Z,99936.38
2023-05-11T17:20:01.887Z,99936.28
2023-05-11T17:22:29.692Z,99938.59
2023-05-11T17:24:57.239Z,99944.78
2023-05-11T17:27:24.771Z,99954.09
2023-05-11T17:29:52.287Z,99952.88
2023-05-11T17:32:20.023Z,99969.84
2023-05-11T17:34:48.972Z,99976.88
2023-05-11T17:37:30.546Z,99967.31
2023-05-11T17:39:59.039Z,99971.66
2023-05-11T17:42:26.734Z,99966.97
2023-05-11T17:44:54.206Z,99973.75
2023-05-11T17:47:21.767Z,99977.25
2023-05-11T17:49:50.782Z,99979.19
2023-05-11T17:52:18.433Z,99982.94
2023-05-11T17:54:45.900Z,99978.75
2023-05-11T17:57:13.407Z,99981.66
2023-05-11T17:59:40.900Z,99971.84
2023-05-11T18:02:08.981Z,99974.66
2023-05-11T18:04:36.480Z,99980.34
2023-05-11T18:07:05.692Z,99981.44
2023-05-11T18:09:33.215Z,99981.34
2023-05-11T18:12:01.246Z,99991.28
2023-05-11T18:14:28.750Z,99995.56
2023-05-11T18:16:56.328Z,100002.28
2023-05-11T18:19:23.821Z,100002.22
2023-05-11T18:21:52.215Z,100010.34
2023-05-11T18:24:21.320Z,100005.31
2023-05-11T18:26:48.783Z,100014.78
2023-05-11T18:29:19.216Z,100015.28
2023-05-11T18:31:47.137Z,100019.59
2023-05-11T18:34:14.692Z,100017.97
2023-05-11T18:36:42.283Z,100026.09
2023-05-11T18:39:09.820Z,100032.44
2023-05-11T18:41:38.956Z,100023.47
2023-05-11T18:44:06.530Z,100030.69
2023-05-11T18:46:34.257Z,100036.19
2023-05-11T18:49:02.008Z,100040.09
2023-05-11T18:51:30.049Z,100037.84
2023-05-11T18:53:57.564Z,100043.31
2023-05-11T18:56:25.518Z,100045.88
2023-05-11T18:58:54.341Z,100047.19
2023-05-11T19:01:25.858Z,100053.53
2023-05-11T19:03:57.930Z,100054.47
2023-05-11T19:06:25.433Z,100063.84
2023-05-11T19:08:53.927Z,100059.28
2023-05-11T19:11:22.811Z,100060.72
2023-05-11T19:13:50.486Z,100068.09
2023-05-11T19:16:20.618Z,100070.53
2023-05-11T19:18:48.479Z,100068.22
2023-05-11T19:21:16.947Z,100076.03
2023-05-11T19:23:44.440Z,100078.91
2023-05-11T19:26:11.942Z,100085.72
2023-05-11T19:28:39.413Z,100083.69
2023-05-11T19:31:07.327Z,100093.69
2023-05-11T19:33:36.432Z,100096.16
2023-05-11T19:36:03.969Z,100097.91
2023-05-11T19:38:31.685Z,100102.94
2023-05-11T19:40:59.662Z,100106.09
2023-05-11T19:43:27.878Z,100115.59
2023-05-11T19:45:55.403Z,100112.63
2023-05-11T19:48:23.291Z,100113.44
2023-05-11T19:50:52.083Z,100118.00
2023-05-11T19:53:19.582Z,100116.69
2023-05-11T19:55:48.280Z,100123.78
2023-05-11T19:58:15.906Z,100121.97
2023-05-11T20:00:43.395Z,100129.66
2023-05-11T20:03:10.996Z,100127.72
2023-05-11T20:05:38.522Z,100137.72
2023-05-11T20:08:07.711Z,100129.38
2023-05-11T20:10:35.644Z,100133.28
2023-05-11T20:13:05.537Z,100134.44
2023-05-11T20:15:34.013Z,100132.03
2023-05-11T20:18:02.811Z,100136.13
2023-05-11T20:20:30.815Z,100132.28
2023-05-11T20:22:59.487Z,100145.59
2023-05-11T20:25:28.374Z,100136.53
2023-05-11T20:27:55.940Z,100141.03
2023-05-11T20:30:23.777Z,100136.75
2023-05-11T20:35:22.268Z,100143.75
2023-05-11T20:37:49.818Z,100141.34
2023-05-11T20:40:17.770Z,100150.72
2023-05-11T20:42:46.706Z,100142.97
2023-05-11T20:45:14.531Z,100137.78
2023-05-11T20:47:42.173Z,100140.56
2023-05-11T20:50:10.907Z,100146.06
2023-05-11T20:52:38.506Z,100154.94
2023-05-11T20:55:07.217Z,100150.56
2023-05-11T20:57:34.806Z,100152.44
2023-05-11T21:00:07.355Z,100149.91
2023-05-11T21:02:35.045Z,100148.25
2023-05-11T21:05:02.865Z,100145.28
2023-05-11T21:07:30.370Z,100144.41
2023-05-11T21:09:58.075Z,100151.56
2023-05-11T21:12:25.709Z,100149.44
2023-05-11T21:14:54.944Z,100148.44
2023-05-11T21:17:25.107Z,100150.25
2023-05-11T21:19:52.692Z,100150.56
2023-05-11T21:22:20.202Z,100153.47
2023-05-11T21:24:47.742Z,100156.09
2023-05-11T21:27:15.386Z,100155.16
2023-05-11T21:29:42.974Z,100154.81
2023-05-11T21:32:10.546Z,100151.16
2023-05-11T21:34:39.429Z,100151.28
2023-05-11T21:37:06.999Z,100158.56
2023-05-11T21:39:34.532Z,100158.91
2023-05-11T21:42:02.892Z,100159.22
2023-05-11T21:44:30.419Z,100163.81
2023-05-11T21:46:58.284Z,100156.91
2023-05-11T21:49:26.196Z,100163.06
2023-05-11T21:51:55.042Z,100161.94
2023-05-11T21:54:22.698Z,100156.81
2023-05-11T21:56:50.270Z,100156.41
2023-05-11T21:59:18.519Z,100162.72
2023-05-11T22:01:46.117Z,100158.47
2023-05-11T22:04:13.678Z,100161.69
2023-05-11T22:06:41.257Z,100159.69
2023-05-11T22:09:10.061Z,100164.69
2023-05-11T22:11:39.514Z,100162.56
2023-05-11T22:14:07.121Z,100171.44
2023-05-11T22:16:34.738Z,100167.06
2023-05-11T22:19:02.377Z,100169.50
2023-05-11T22:21:29.970Z,100172.06
2023-05-11T22:23:57.592Z,100172.25
2023-05-11T22:26:26.482Z,100164.06
2023-05-11T22:28:54.071Z,100166.25
2023-05-11T22:31:21.627Z,100169.66
2023-05-11T22:33:49.933Z,100167.97
2023-05-11T22:36:17.423Z,100174.25
2023-05-11T22:38:44.976Z,100179.56
2023-05-11T22:41:12.470Z,100177.19
2023-05-11T22:43:41.300Z,100184.38
2023-05-11T22:46:09.114Z,100170.53
2023-05-11T22:48:36.611Z,100177.97
2023-05-11T22:51:06.246Z,100182.91
2023-05-11T22:53:33.775Z,100185.34
2023-05-11T22:56:03.617Z,100186.53
2023-05-11T22:58:31.170Z,100181.19
2023-05-11T23:01:00.049Z,100187.88
2023-05-11T23:03:28.073Z,100181.28
2023-05-11T23:05:55.949Z,100194.00
2023-05-11T23:08:25.656Z,100188.22
2023-05-11T23:10:53.302Z,100186.81
2023-05-11T23:13:20.924Z,100178.56
2023-05-11T23:15:48.432Z,100177.22
2023-05-11T23:18:17.332Z,100171.47
2023-05-11T23:20:44.940Z,100172.69
2023-05-11T23:23:12.616Z,100174.31
2023-05-11T23:25:40.362Z,100174.47
2023-05-11T23:28:11.433Z,100171.06
2023-05-11T23:30:39.073Z,100171.44
2023-05-11T23:33:06.679Z,100173.72
2023-05-11T23:35:35.505Z,100172.06
2023-05-11T23:38:03.042Z,100183.06
2023-05-11T23:40:30.597Z,100178.75
2023-05-11T23:42:58.218Z,100179.28
2023-05-11T23:45:26.361Z,100180.06
2023-05-11T23:47:53.947Z,100185.97
2023-05-11T23:50:21.788Z,100181.41
2023-05-11T23:52:50.727Z,100173.72
2023-05-11T23:55:18.312Z,100178.16
2023-05-11T23:57:46.122Z,100176.75
